Time;durP1;ratioP1;P1;durP2;ratioP2;P2;SDS_P1;SDS_P2;PMS_P1;PMS_P2;Temp;Humidity;BMP_temperature;BMP_pressure;BME280_temperature;BME280_humidity;BME280_pressure;Samples;Min_cycle;Max_cycle;Signal;HPM_P1;HPM_P2
2023/01/19 19:55:53;;;;;;;16.67;12.68;;;10.40;99.90;;;;;;5930892;23;20473;-92
2023/01/19 19:58:20;;;;;;;18.73;14.88;;;10.50;99.90;;;;;;4975458;28;20081;-91
2023/01/19 20:00:47;;;;;;;45.08;27.05;;;10.50;99.90;;;;;;4959349;28;20022;-91
2023/01/19 20:03:13;;;;;;;36.90;22.23;;;10.50;99.90;;;;;;4959354;28;20050;-90
2023/01/19 20:05:40;;;;;;;48.60;27.88;;;10.50;99.90;;;;;;4956943;28;20154;-89
2023/01/19 20:08:06;;;;;;;33.55;22.90;;;10.50;99.90;;;;;;4955799;29;20031;-90
2023/01/19 20:10:33;;;;;;;39.30;23.27;;;10.50;99.90;;;;;;4955855;29;20031;-90
2023/01/19 20:13:00;;;;;;;38.63;23.00;;;10.50;99.90;;;;;;4955932;29;20484;-93
2023/01/19 20:15:26;;;;;;;27.10;16.85;;;10.40;99.90;;;;;;4955583;29;20033;-93
2023/01/19 20:17:54;;;;;;;18.92;13.95;;;10.40;99.90;;;;;;4955661;29;20107;-88
2023/01/19 20:20:23;;;;;;;25.40;15.10;;;10.30;99.90;;;;;;4955895;29;20023;-92
2023/01/19 20:22:50;;;;;;;26.35;16.73;;;10.30;99.90;;;;;;4955446;29;20041;-90
2023/01/19 20:25:16;;;;;;;25.60;16.50;;;10.20;99.90;;;;;;4955551;29;20043;-92
2023/01/19 20:27:43;;;;;;;27.75;17.48;;;10.20;99.90;;;;;;4955326;29;20031;-91
2023/01/19 20:30:19;;;;;;;33.53;18.75;;;10.20;99.90;;;;;;4955558;28;20063;-90
2023/01/19 20:32:46;;;;;;;33.22;18.65;;;10.20;99.90;;;;;;4958148;28;20035;-90
2023/01/19 20:35:19;;;;;;;63.28;31.67;;;10.20;99.90;;;;;;4939530;29;20027;-92
2023/01/19 20:37:46;;;;;;;69.20;34.83;;;10.20;99.90;;;;;;4939481;29;20043;-89
2023/01/19 20:40:16;;;;;;;57.53;30.52;;;10.20;99.90;;;;;;4939477;29;20062;-90
2023/01/19 20:42:43;;;;;;;41.90;23.63;;;10.10;99.90;;;;;;4939401;29;20035;-90
2023/01/19 20:45:10;;;;;;;20.98;15.60;;;10.10;99.90;;;;;;4939543;29;20031;-92
2023/01/19 20:47:37;;;;;;;26.15;16.70;;;10.10;99.90;;;;;;4939259;29;20027;-91
2023/01/19 20:50:05;;;;;;;37.35;23.10;;;10.10;99.90;;;;;;4939545;29;20027;-94
2023/01/19 20:52:34;;;;;;;21.10;14.77;;;10.10;99.90;;;;;;4939356;29;20035;-90
2023/01/19 20:55:01;;;;;;;27.83;14.68;;;10.10;99.90;;;;;;4939299;29;20536;-91
2023/01/19 20:57:28;;;;;;;25.90;15.13;;;10.10;99.90;;;;;;4939277;29;20051;-91
2023/01/19 20:59:54;;;;;;;22.45;14.75;;;10.10;99.90;;;;;;4937558;29;20081;-92
2023/01/19 21:02:25;;;;;;;23.42;14.68;;;10.10;99.90;;;;;;4939302;29;20027;-91
2023/01/19 21:04:53;;;;;;;20.55;12.70;;;10.00;99.90;;;;;;4939967;29;20228;-93
2023/01/19 21:07:20;;;;;;;22.00;13.57;;;10.00;99.90;;;;;;4939338;29;20031;-92
2023/01/19 21:09:52;;;;;;;17.88;12.55;;;10.00;99.90;;;;;;4939596;29;20031;-90
2023/01/19 21:12:22;;;;;;;13.40;11.02;;;10.00;99.90;;;;;;4939107;29;20047;-90
2023/01/19 21:14:49;;;;;;;17.75;11.90;;;10.00;99.90;;;;;;4939341;29;20038;-89
2023/01/19 21:17:15;;;;;;;18.70;11.02;;;9.90;99.90;;;;;;4939043;29;20043;-90
2023/01/19 21:19:42;;;;;;;18.67;10.57;;;9.90;99.90;;;;;;4939084;29;20034;-89
2023/01/19 21:22:10;;;;;;;15.30;10.25;;;9.90;99.90;;;;;;4939079;29;20034;-90
2023/01/19 21:24:37;;;;;;;19.13;10.45;;;9.90;99.90;;;;;;4938940;29;20042;-91
2023/01/19 21:27:04;;;;;;;17.77;9.70;;;9.80;99.90;;;;;;4939024;29;20031;-90
2023/01/19 21:29:31;;;;;;;11.60;9.15;;;9.80;99.90;;;;;;4939125;29;20159;-90
2023/01/19 21:31:58;;;;;;;15.65;9.43;;;9.70;99.90;;;;;;4938997;29;20039;-90
2023/01/19 21:34:24;;;;;;;15.32;9.80;;;9.70;99.90;;;;;;4936381;29;20027;-90
2023/01/19 21:36:51;;;;;;;15.23;10.57;;;9.70;99.90;;;;;;4938763;29;20488;-91
2023/01/19 21:39:18;;;;;;;14.43;9.52;;;9.70;99.90;;;;;;4938940;29;20177;-89
2023/01/19 21:41:45;;;;;;;15.68;10.48;;;9.70;99.90;;;;;;4954698;29;20023;-92
2023/01/19 21:44:12;;;;;;;19.23;10.27;;;9.60;99.90;;;;;;4938862;29;20024;-92
2023/01/19 21:46:39;;;;;;;21.63;10.68;;;9.70;99.90;;;;;;4938761;29;20038;-90
2023/01/19 21:49:17;;;;;;;13.80;9.20;;;9.60;99.90;;;;;;4938777;29;20388;-92
2023/01/19 21:51:49;;;;;;;14.48;8.27;;;9.70;99.90;;;;;;4955112;29;20063;-91
2023/01/19 21:54:16;;;;;;;17.23;9.18;;;9.70;99.90;;;;;;4955482;29;20031;-90
2023/01/19 21:56:43;;;;;;;16.88;10.07;;;9.70;99.90;;;;;;4938598;29;20105;-90
2023/01/19 21:59:22;;;;;;;12.40;8.77;;;9.70;99.90;;;;;;4938661;29;20046;-91
2023/01/19 22:01:48;;;;;;;19.67;9.40;;;9.80;99.90;;;;;;4954559;28;20031;-90
2023/01/19 22:04:15;;;;;;;13.95;9.65;;;9.80;99.90;;;;;;4942150;29;20035;-92
2023/01/19 22:06:42;;;;;;;12.02;7.50;;;9.80;99.90;;;;;;4942142;29;20023;-91
2023/01/19 22:09:09;;;;;;;9.68;7.72;;;9.70;99.90;;;;;;4958117;29;20515;-91
2023/01/19 22:11:35;;;;;;;15.32;8.05;;;9.70;99.90;;;;;;4942397;29;20102;-91
2023/01/19 22:14:02;;;;;;;13.82;7.40;;;9.70;99.90;;;;;;4957953;29;20147;-90
2023/01/19 22:16:29;;;;;;;11.70;7.65;;;9.60;99.90;;;;;;4941993;29;20496;-90
2023/01/19 22:19:06;;;;;;;13.10;7.88;;;9.60;99.90;;;;;;4942151;29;20031;-91
2023/01/19 22:21:34;;;;;;;12.48;7.75;;;9.60;99.90;;;;;;4958146;29;20059;-93
2023/01/19 22:24:03;;;;;;;17.75;8.57;;;9.70;99.90;;;;;;4942324;29;20024;-91
2023/01/19 22:26:32;;;;;;;11.40;8.90;;;9.60;99.90;;;;;;4941931;29;20027;-91
2023/01/19 22:29:00;;;;;;;17.92;9.40;;;9.70;99.90;;;;;;4957911;28;20034;-92
2023/01/19 22:31:28;;;;;;;15.02;9.07;;;9.60;99.90;;;;;;4961159;28;20546;-90
2023/01/19 22:33:55;;;;;;;15.80;10.65;;;9.70;99.90;;;;;;4960813;28;20070;-92
2023/01/19 22:36:27;;;;;;;16.75;10.30;;;9.70;99.90;;;;;;4961322;28;20026;-93
2023/01/19 22:39:07;;;;;;;16.50;10.30;;;9.70;99.90;;;;;;4977330;28;20125;-92
2023/01/19 22:41:36;;;;;;;12.98;9.18;;;9.70;99.90;;;;;;4976811;28;20030;-90
2023/01/19 22:44:15;;;;;;;17.17;10.20;;;9.70;99.90;;;;;;4961240;28;20035;-90
2023/01/19 22:46:42;;;;;;;12.30;8.70;;;9.60;99.90;;;;;;4977049;28;20035;-92
2023/01/19 22:49:12;;;;;;;12.30;8.98;;;9.60;99.90;;;;;;4961605;28;20114;-91
2023/01/19 22:51:40;;;;;;;12.75;9.25;;;9.60;99.90;;;;;;4963230;28;20031;-90
2023/01/19 22:54:13;;;;;;;14.60;8.48;;;9.50;99.90;;;;;;4964594;28;20027;-91
2023/01/19 22:56:48;;;;;;;13.25;9.73;;;9.50;99.90;;;;;;4961835;28;20108;-91
2023/01/19 22:59:14;;;;;;;15.35;9.45;;;9.50;99.90;;;;;;4961660;28;20031;-90
2023/01/19 23:01:43;;;;;;;15.27;9.80;;;9.50;99.90;;;;;;4962144;28;20043;-90
2023/01/19 23:04:13;;;;;;;14.20;9.50;;;9.50;99.90;;;;;;4963781;28;20035;-92
2023/01/19 23:06:40;;;;;;;17.00;9.75;;;9.50;99.90;;;;;;4962097;28;20030;-92
2023/01/19 23:09:18;;;;;;;16.27;10.25;;;9.40;99.90;;;;;;4975796;28;20031;-91
2023/01/19 23:11:50;;;;;;;13.88;10.02;;;9.40;99.90;;;;;;4983716;28;20030;-92
2023/01/19 23:14:20;;;;;;;16.73;10.00;;;9.40;99.90;;;;;;4977273;28;20038;-92
2023/01/19 23:16:47;;;;;;;18.83;10.20;;;9.40;99.90;;;;;;4976312;28;20066;-93
2023/01/19 23:19:15;;;;;;;16.08;11.23;;;9.50;99.90;;;;;;4960140;28;20038;-92
2023/01/19 23:21:42;;;;;;;14.63;10.65;;;9.40;99.90;;;;;;4960255;28;20026;-93
2023/01/19 23:24:10;;;;;;;19.95;11.40;;;9.40;99.90;;;;;;4960131;28;20374;-92
2023/01/19 23:26:40;;;;;;;19.05;10.70;;;9.40;99.90;;;;;;4976224;28;20035;-93
2023/01/19 23:29:10;;;;;;;20.42;12.43;;;9.40;99.90;;;;;;4968870;28;20492;-91
2023/01/19 23:31:41;;;;;;;22.17;11.35;;;9.40;99.90;;;;;;4960171;28;20035;-92
2023/01/19 23:34:10;;;;;;;18.08;11.75;;;9.40;99.90;;;;;;4960106;28;20030;-92
2023/01/19 23:36:39;;;;;;;29.38;13.25;;;9.50;99.90;;;;;;4960119;28;20071;-91
2023/01/19 23:39:20;;;;;;;16.77;11.45;;;9.50;99.90;;;;;;4959930;28;20030;-91
2023/01/19 23:41:47;;;;;;;14.65;11.07;;;9.40;99.90;;;;;;4960436;28;20037;-91
2023/01/19 23:44:14;;;;;;;19.73;12.05;;;9.40;99.90;;;;;;4960139;28;20035;-91
2023/01/19 23:46:42;;;;;;;14.18;11.18;;;9.40;99.90;;;;;;4960110;28;20023;-90
2023/01/19 23:49:10;;;;;;;23.05;12.32;;;9.40;99.90;;;;;;4959998;28;20023;-91
2023/01/19 23:51:38;;;;;;;21.65;13.82;;;9.30;99.90;;;;;;4960003;28;20035;-92
2023/01/19 23:54:06;;;;;;;21.73;12.43;;;9.40;99.90;;;;;;4959607;28;20070;-92
2023/01/19 23:56:34;;;;;;;17.27;11.38;;;9.40;99.90;;;;;;4959366;28;20047;-93
2023/01/19 23:59:05;;;;;;;17.73;11.15;;;9.50;99.90;;;;;;4959744;28;20049;-92
